createdAt,value
2022-09-12T00:01:38.749Z,84.89
2022-09-12T00:04:09.100Z,85.07
2022-09-12T00:06:39.774Z,84.72
2022-09-12T00:09:12.966Z,84.35
2022-09-12T00:11:45.800Z,84.41
2022-09-12T00:14:18.344Z,84.10
2022-09-12T00:16:48.688Z,84.06
2022-09-12T00:19:19.058Z,84.38
2022-09-12T00:21:49.173Z,84.39
2022-09-12T00:24:19.458Z,83.81
2022-09-12T00:26:49.623Z,83.92
2022-09-12T00:29:23.118Z,84.00
2022-09-12T00:31:53.438Z,83.88
2022-09-12T00:34:23.656Z,83.74
2022-09-12T00:36:53.871Z,84.01
2022-09-12T00:39:23.973Z,84.47
2022-09-12T00:41:54.629Z,84.69
2022-09-12T00:44:45.211Z,84.59
2022-09-12T00:47:20.553Z,84.11
2022-09-12T00:49:55.416Z,83.36
2022-09-12T00:52:30.898Z,83.10
2022-09-12T00:55:06.878Z,83.16
2022-09-12T00:57:41.801Z,83.19
2022-09-12T01:00:16.242Z,82.64
2022-09-12T01:02:51.554Z,82.35
2022-09-12T01:05:22.384Z,82.60
2022-09-12T01:07:53.430Z,82.55
2022-09-12T01:10:24.753Z,82.57
2022-09-12T01:12:54.893Z,82.78
2022-09-12T01:15:25.019Z,83.06
2022-09-12T01:18:10.722Z,82.79
2022-09-12T01:21:03.238Z,83.49
2022-09-12T01:24:16.525Z,83.72
2022-09-12T01:27:02.072Z,83.48
2022-09-12T01:29:56.659Z,84.06
2022-09-12T01:32:36.810Z,84.07
2022-09-12T01:35:21.130Z,83.78
2022-09-12T01:38:03.152Z,84.02
2022-09-12T01:40:41.022Z,84.41
2022-09-12T01:43:16.069Z,84.64
2022-09-12T01:45:54.144Z,84.49
2022-09-12T01:48:29.562Z,84.14
2022-09-12T01:51:05.480Z,84.12
2022-09-12T01:53:41.635Z,84.18
2022-09-12T01:56:16.575Z,84.12
2022-09-12T01:58:51.129Z,84.54
2022-09-12T02:01:26.187Z,84.70
2022-09-12T02:04:03.974Z,84.44
2022-09-12T02:06:37.656Z,84.23
2022-09-12T02:09:13.427Z,84.38
2022-09-12T02:11:45.978Z,84.58
2022-09-12T02:14:20.219Z,84.91
2022-09-12T02:16:55.557Z,84.99
2022-09-12T02:19:29.579Z,84.83
2022-09-12T02:22:02.776Z,84.25
2022-09-12T02:24:43.737Z,83.78
2022-09-12T02:27:17.658Z,83.61
2022-09-12T02:29:48.432Z,83.86
2022-09-12T02:32:30.709Z,83.46
2022-09-12T02:35:07.339Z,82.96
2022-09-12T02:37:50.716Z,82.62
2022-09-12T02:40:21.081Z,82.74
2022-09-12T02:42:51.522Z,82.97
2022-09-12T02:45:23.222Z,83.15
2022-09-12T02:47:59.459Z,83.22
2022-09-12T02:50:30.617Z,83.48
2022-09-12T02:53:04.818Z,83.50
2022-09-12T02:55:36.608Z,83.41
2022-09-12T02:58:09.932Z,83.24
2022-09-12T03:00:49.421Z,83.25
2022-09-12T03:03:43.321Z,82.91
2022-09-12T03:06:22.710Z,83.09
2022-09-12T03:09:06.153Z,83.11
2022-09-12T03:12:02.903Z,82.65
2022-09-12T03:14:46.783Z,82.91
2022-09-12T03:17:26.489Z,82.26
2022-09-12T03:20:04.158Z,82.08
2022-09-12T03:22:43.448Z,82.23
2022-09-12T03:25:19.294Z,82.57
2022-09-12T03:27:59.642Z,82.75
2022-09-12T03:30:30.164Z,82.87
2022-09-12T03:33:00.321Z,82.63
2022-09-12T03:35:30.812Z,82.33
2022-09-12T03:38:00.981Z,82.63
2022-09-12T03:40:31.181Z,82.68
2022-09-12T03:43:01.691Z,82.61
2022-09-12T03:45:32.378Z,82.25
2022-09-12T03:48:02.814Z,82.02
2022-09-12T03:50:33.853Z,81.96
2022-09-12T03:53:04.610Z,82.19
2022-09-12T03:55:34.754Z,82.45
2022-09-12T03:58:04.866Z,82.20
2022-09-12T04:00:35.046Z,82.31
2022-09-12T04:03:05.413Z,82.42
2022-09-12T04:05:36.574Z,82.01
2022-09-12T04:08:07.061Z,82.18
2022-09-12T04:10:37.232Z,82.39
2022-09-12T04:13:07.634Z,82.52
2022-09-12T04:15:38.089Z,82.38
2022-09-12T04:18:08.277Z,82.54
2022-09-12T04:20:38.485Z,82.71
2022-09-12T04:23:08.584Z,82.86
2022-09-12T04:25:39.053Z,82.77
2022-09-12T04:28:09.811Z,82.98
2022-09-12T04:30:40.344Z,82.92
2022-09-12T04:33:10.516Z,82.60
2022-09-12T04:35:41.611Z,82.28
2022-09-12T04:38:12.407Z,82.49
2022-09-12T04:40:42.798Z,82.51
2022-09-12T04:43:14.641Z,82.61
2022-09-12T04:45:45.007Z,82.43
2022-09-12T04:48:15.209Z,82.40
2022-09-12T04:50:45.371Z,82.62
2022-09-12T04:53:15.480Z,82.65
2022-09-12T04:55:46.166Z,82.73
2022-09-12T04:58:16.283Z,82.78
2022-09-12T05:00:46.818Z,82.68
2022-09-12T05:03:16.940Z,83.06
2022-09-12T05:05:47.125Z,83.32
2022-09-12T05:08:17.691Z,82.99
2022-09-12T05:10:48.210Z,83.26
2022-09-12T05:13:18.869Z,83.43
2022-09-12T05:15:57.613Z,83.07
2022-09-12T05:18:28.841Z,82.92
2022-09-12T05:21:02.317Z,83.00
2022-09-12T05:23:33.727Z,83.20
2022-09-12T05:26:05.174Z,83.33
2022-09-12T05:28:38.275Z,83.51
2022-09-12T05:31:11.455Z,83.53
2022-09-12T05:33:45.105Z,83.77
2022-09-12T05:36:17.693Z,83.79
2022-09-12T05:38:48.622Z,83.97
2022-09-12T05:41:24.854Z,84.23
2022-09-12T05:43:57.202Z,84.35
2022-09-12T05:46:29.266Z,84.63
2022-09-12T05:49:03.170Z,84.73
2022-09-12T05:51:35.863Z,84.87
2022-09-12T05:54:08.779Z,85.17
2022-09-12T05:56:42.039Z,85.40
2022-09-12T05:59:14.667Z,85.89
2022-09-12T06:01:45.526Z,86.13
2022-09-12T06:04:15.921Z,86.39
2022-09-12T06:06:46.997Z,86.52
2022-09-12T06:09:18.487Z,86.73
2022-09-12T06:11:48.920Z,86.82
2022-09-12T06:14:19.485Z,87.02
2022-09-12T06:16:50.475Z,87.29
2022-09-12T06:19:23.152Z,87.76
2022-09-12T06:21:53.810Z,88.06
2022-09-12T06:24:24.222Z,88.53
2022-09-12T06:26:54.708Z,88.92
2022-09-12T06:29:25.840Z,89.18
2022-09-12T06:31:56.354Z,89.34
2022-09-12T06:34:27.740Z,89.60
2022-09-12T06:36:58.052Z,89.71
2022-09-12T06:39:28.225Z,89.96
2022-09-12T06:41:58.322Z,90.20
2022-09-12T06:44:29.678Z,90.15
2022-09-12T06:46:59.774Z,90.22
2022-09-12T06:49:30.982Z,90.27
2022-09-12T06:52:01.548Z,90.59
2022-09-12T06:54:31.653Z,90.86
2022-09-12T06:57:02.356Z,90.91
2022-09-12T06:59:32.796Z,90.99
2022-09-12T07:02:02.967Z,91.14
2022-09-12T07:04:36.721Z,91.23
2022-09-12T07:07:06.860Z,91.28
2022-09-12T07:09:36.952Z,91.36
2022-09-12T07:12:08.198Z,91.43
2022-09-12T07:14:38.318Z,91.46
2022-09-12T07:17:09.545Z,91.55
2022-09-12T07:19:39.682Z,91.50
2022-09-12T07:22:09.770Z,91.55
2022-09-12T07:24:41.162Z,91.79
2022-09-12T07:27:11.256Z,91.69
2022-09-12T07:29:41.378Z,91.65
2022-09-12T07:32:12.128Z,91.67
2022-09-12T07:34:42.533Z,91.62
2022-09-12T07:37:12.647Z,91.91
2022-09-12T07:39:43.288Z,92.08
2022-09-12T07:42:13.617Z,92.04
2022-09-12T07:44:44.469Z,92.06
2022-09-12T07:47:14.594Z,91.90
2022-09-12T07:49:45.022Z,91.94
2022-09-12T07:52:15.146Z,91.72
2022-09-12T07:54:45.400Z,91.88
2022-09-12T07:57:15.705Z,91.71
2022-09-12T07:59:52.930Z,92.12
2022-09-12T08:02:22.066Z,91.91
2022-09-12T08:04:52.903Z,92.21
2022-09-12T08:07:23.740Z,92.16
2022-09-12T08:09:54.533Z,92.23
2022-09-12T08:12:24.665Z,92.04
2022-09-12T08:14:55.125Z,92.05
2022-09-12T08:17:25.244Z,92.00
2022-09-12T08:19:56.038Z,92.18
2022-09-12T08:22:26.450Z,92.09
2022-09-12T08:24:57.043Z,91.88
2022-09-12T08:27:27.139Z,91.73
2022-09-12T08:29:57.595Z,91.87
2022-09-12T08:32:27.689Z,92.30
2022-09-12T08:34:58.301Z,91.97
2022-09-12T08:37:30.547Z,91.75
2022-09-12T08:40:00.730Z,91.51
2022-09-12T08:42:43.186Z,91.91
2022-09-12T08:45:22.500Z,92.15
2022-09-12T08:47:53.251Z,91.69
2022-09-12T08:50:25.031Z,91.25
2022-09-12T08:52:59.825Z,91.01
2022-09-12T08:55:42.229Z,90.66
2022-09-12T08:58:17.800Z,90.40
2022-09-12T09:00:59.656Z,90.38
2022-09-12T09:04:05.694Z,90.74
2022-09-12T09:06:52.785Z,90.26
2022-09-12T09:09:32.738Z,89.84
2022-09-12T09:12:16.878Z,89.98
2022-09-12T09:15:01.176Z,89.98
2022-09-12T09:17:38.600Z,89.84
2022-09-12T09:20:22.308Z,89.83
2022-09-12T09:22:56.805Z,89.62
2022-09-12T09:25:35.599Z,89.77
2022-09-12T09:28:13.607Z,89.14
2022-09-12T09:30:45.778Z,88.28
2022-09-12T09:33:23.402Z,88.68
2022-09-12T09:35:56.625Z,88.36
2022-09-12T09:38:36.018Z,87.91
2022-09-12T09:41:30.307Z,87.50
2022-09-12T09:44:02.799Z,86.70
2022-09-12T09:46:33.465Z,86.30
2022-09-12T09:49:05.562Z,85.81
2022-09-12T09:51:39.597Z,85.44
2022-09-12T09:54:19.235Z,84.93
2022-09-12T09:56:49.949Z,83.52
2022-09-12T09:59:26.622Z,83.64
2022-09-12T10:02:03.428Z,82.82
2022-09-12T10:04:40.546Z,82.24
2022-09-12T10:07:21.680Z,81.25
2022-09-12T10:10:15.426Z,80.96
2022-09-12T10:12:46.166Z,80.54
2022-09-12T10:15:22.251Z,80.29
2022-09-12T10:17:54.852Z,79.48
2022-09-12T10:20:38.624Z,79.15
2022-09-12T10:23:31.129Z,79.22
2022-09-12T10:26:03.771Z,78.54
2022-09-12T10:28:39.393Z,78.46
2022-09-12T10:31:11.640Z,78.26
2022-09-12T10:33:47.431Z,77.63
2022-09-12T10:36:18.275Z,76.65
2022-09-12T10:38:54.973Z,75.86
2022-09-12T10:41:26.070Z,74.95
2022-09-12T10:44:10.105Z,73.82
2022-09-12T10:46:40.473Z,73.63
2022-09-12T10:49:24.755Z,73.33
2022-09-12T10:51:56.591Z,72.81
2022-09-12T10:54:29.527Z,72.13
2022-09-12T10:57:25.009Z,72.51
2022-09-12T11:00:08.767Z,71.62
2022-09-12T11:02:59.302Z,70.68
2022-09-12T11:05:48.585Z,70.37
2022-09-12T11:08:37.256Z,69.06
2022-09-12T11:11:15.159Z,69.14
2022-09-12T11:14:01.002Z,68.66
2022-09-12T11:16:42.110Z,68.48
2022-09-12T11:19:38.575Z,68.44
2022-09-12T11:22:28.668Z,68.59
2022-09-12T11:25:14.783Z,67.48
2022-09-12T11:28:07.370Z,67.30
2022-09-12T11:30:48.374Z,67.14
2022-09-12T11:33:42.291Z,67.04
2022-09-12T11:36:24.879Z,66.49
2022-09-12T11:39:03.166Z,65.68
2022-09-12T11:41:37.249Z,65.99
2022-09-12T11:44:16.860Z,66.27
2022-09-12T11:46:51.533Z,65.59
2022-09-12T11:49:35.253Z,65.47
2022-09-12T11:52:12.591Z,65.75
2022-09-12T11:54:52.810Z,65.51
2022-09-12T11:57:31.942Z,65.27
2022-09-12T12:00:07.767Z,65.61
2022-09-12T12:02:45.552Z,65.59
2022-09-12T12:05:24.838Z,65.38
2022-09-12T12:07:57.201Z,65.16
2022-09-12T12:10:34.606Z,65.22
2022-09-12T12:13:05.206Z,65.27
2022-09-12T12:15:38.500Z,65.23
2022-09-12T12:18:17.854Z,65.89
2022-09-12T12:20:48.898Z,65.54
2022-09-12T12:23:31.351Z,64.53
2022-09-12T12:26:03.177Z,64.44
2022-09-12T12:29:02.288Z,64.40
2022-09-12T12:31:32.569Z,63.64
2022-09-12T12:34:28.328Z,63.12
2022-09-12T12:37:00.185Z,63.01
2022-09-12T12:40:01.320Z,62.67
2022-09-12T12:43:04.981Z,62.09
2022-09-12T12:46:09.213Z,62.05
2022-09-12T12:48:53.597Z,62.12
2022-09-12T12:51:57.110Z,61.87
2022-09-12T12:54:51.902Z,61.22
2022-09-12T12:57:47.194Z,61.14
2022-09-12T13:00:36.377Z,60.34
2022-09-12T13:03:23.585Z,60.32
2022-09-12T13:05:55.666Z,59.60
2022-09-12T13:08:33.693Z,60.17
2022-09-12T13:11:08.443Z,60.40
2022-09-12T13:13:44.986Z,60.69
2022-09-12T13:16:32.242Z,60.38
2022-09-12T13:19:07.278Z,59.79
2022-09-12T13:21:38.286Z,60.23
2022-09-12T13:24:18.590Z,59.57
2022-09-12T13:26:50.822Z,59.78
2022-09-12T13:29:23.171Z,59.93
2022-09-12T13:31:56.978Z,59.33
2022-09-12T13:34:30.439Z,59.10
2022-09-12T13:37:36.428Z,58.72
2022-09-12T13:40:34.856Z,57.29
2022-09-12T13:43:16.814Z,58.06
2022-09-12T13:45:48.522Z,57.96
2022-09-12T13:48:23.231Z,57.09
2022-09-12T13:50:55.836Z,56.60
2022-09-12T13:53:32.223Z,57.17
2022-09-12T13:56:03.716Z,57.25
2022-09-12T13:58:35.934Z,57.35
2022-09-12T14:01:13.311Z,57.18
2022-09-12T14:04:01.020Z,57.08
2022-09-12T14:06:35.919Z,58.41
2022-09-12T14:09:16.114Z,58.83
2022-09-12T14:11:46.280Z,59.08
2022-09-12T14:14:29.343Z,58.83
2022-09-12T14:17:00.138Z,58.25
2022-09-12T14:19:32.194Z,57.39
2022-09-12T14:22:02.823Z,57.57
2022-09-12T14:24:34.338Z,57.64
2022-09-12T14:27:05.547Z,58.09
2022-09-12T14:29:35.984Z,58.13
2022-09-12T14:32:16.232Z,58.32
2022-09-12T14:35:06.488Z,58.12
2022-09-12T14:37:36.719Z,58.25
2022-09-12T14:40:19.832Z,58.25
2022-09-12T14:42:51.540Z,58.63
2022-09-12T14:45:29.940Z,58.20
2022-09-12T14:48:00.942Z,57.87
2022-09-12T14:50:36.573Z,57.28
2022-09-12T14:53:08.868Z,57.51
2022-09-12T14:55:46.444Z,57.37
2022-09-12T14:58:26.629Z,57.37
2022-09-12T15:01:00.605Z,57.39
2022-09-12T15:03:34.711Z,57.56
2022-09-12T15:06:07.955Z,57.27
2022-09-12T15:08:38.151Z,57.73
2022-09-12T15:11:08.954Z,57.85
2022-09-12T15:13:43.175Z,58.21
2022-09-12T15:16:14.142Z,58.24
2022-09-12T15:18:44.328Z,57.55
2022-09-12T15:21:20.063Z,57.68
2022-09-12T15:23:51.706Z,57.56
2022-09-12T15:26:24.087Z,56.87
2022-09-12T15:28:54.583Z,57.03
2022-09-12T15:31:27.944Z,56.81
2022-09-12T15:33:59.731Z,56.90
2022-09-12T15:36:30.733Z,57.13
2022-09-12T15:39:00.907Z,56.89
2022-09-12T15:41:35.543Z,57.24
2022-09-12T15:44:07.958Z,56.34
2022-09-12T15:46:38.542Z,56.36
2022-09-12T15:49:09.205Z,56.93
2022-09-12T15:51:40.282Z,56.79
2022-09-12T15:54:14.836Z,56.58
2022-09-12T15:56:44.974Z,56.81
2022-09-12T15:59:15.101Z,56.72
2022-09-12T16:01:45.225Z,57.09
2022-09-12T16:04:23.809Z,57.08
2022-09-12T16:06:55.664Z,57.42
2022-09-12T16:09:26.233Z,57.46
2022-09-12T16:11:56.870Z,57.63
2022-09-12T16:14:27.481Z,56.83
2022-09-12T16:16:58.309Z,56.75
2022-09-12T16:19:28.870Z,57.00
2022-09-12T16:21:59.570Z,56.79
2022-09-12T16:24:30.185Z,57.20
2022-09-12T16:27:01.408Z,57.89
2022-09-12T16:29:31.934Z,57.87
2022-09-12T16:32:02.812Z,58.26
2022-09-12T16:34:33.008Z,58.59
2022-09-12T16:37:03.721Z,59.02
2022-09-12T16:39:34.358Z,59.72
2022-09-12T16:42:05.140Z,60.01
2022-09-12T16:44:35.289Z,60.40
2022-09-12T16:47:05.572Z,60.65
2022-09-12T16:49:35.706Z,60.20
2022-09-12T16:52:06.218Z,60.29
2022-09-12T16:54:36.702Z,60.84
2022-09-12T16:57:07.265Z,61.39
2022-09-12T16:59:37.397Z,62.19
2022-09-12T17:02:08.001Z,62.37
2022-09-12T17:04:38.736Z,62.56
2022-09-12T17:07:09.998Z,62.87
2022-09-12T17:09:40.537Z,62.98
2022-09-12T17:12:10.785Z,63.32
2022-09-12T17:14:41.249Z,63.44
2022-09-12T17:17:11.774Z,63.96
2022-09-12T17:19:43.457Z,63.88
2022-09-12T17:22:13.935Z,64.91
2022-09-12T17:24:44.938Z,65.89
2022-09-12T17:27:15.099Z,66.63
2022-09-12T17:29:45.219Z,67.03
2022-09-12T17:32:17.562Z,68.19
2022-09-12T17:34:47.950Z,69.47
2022-09-12T17:37:18.295Z,69.98
2022-09-12T17:39:49.040Z,70.42
2022-09-12T17:42:20.145Z,70.39
2022-09-12T17:44:50.481Z,70.28
2022-09-12T17:47:21.374Z,70.29
2022-09-12T17:49:56.368Z,70.42
2022-09-12T17:52:35.710Z,70.39
2022-09-12T17:55:06.915Z,70.48
2022-09-12T17:57:37.415Z,70.03
2022-09-12T18:00:14.302Z,70.14
2022-09-12T18:02:46.651Z,70.23
2022-09-12T18:05:17.401Z,69.95
2022-09-12T18:07:47.614Z,69.75
2022-09-12T18:10:18.065Z,69.75
2022-09-12T18:12:52.174Z,70.02
2022-09-12T18:15:22.660Z,69.83
2022-09-12T18:17:52.871Z,69.80
2022-09-12T18:20:23.804Z,69.63
2022-09-12T18:22:54.082Z,69.71
2022-09-12T18:25:24.517Z,69.80
2022-09-12T18:27:54.627Z,69.94
2022-09-12T18:30:24.813Z,70.02
2022-09-12T18:32:55.762Z,70.15
2022-09-12T18:35:25.892Z,70.18
2022-09-12T18:37:56.451Z,70.32
2022-09-12T18:40:26.927Z,70.56
2022-09-12T18:42:58.071Z,70.47
2022-09-12T18:45:29.050Z,70.90
2022-09-12T18:47:59.714Z,71.29
2022-09-12T18:50:30.696Z,71.52
2022-09-12T18:53:04.236Z,71.75
2022-09-12T18:55:35.068Z,72.14
2022-09-12T18:58:05.973Z,72.51
2022-09-12T19:00:36.967Z,72.43
2022-09-12T19:03:08.837Z,72.30
2022-09-12T19:05:40.485Z,72.20
2022-09-12T19:08:12.600Z,72.27
2022-09-12T19:10:43.989Z,71.92
2022-09-12T19:13:18.221Z,71.87
2022-09-12T19:15:49.021Z,71.81
2022-09-12T19:18:19.903Z,72.31
2022-09-12T19:20:54.802Z,72.79
2022-09-12T19:23:26.060Z,72.82
2022-09-12T19:26:04.290Z,72.75
2022-09-12T19:28:35.330Z,72.87
2022-09-12T19:31:08.893Z,72.82
2022-09-12T19:33:39.091Z,72.84
2022-09-12T19:36:34.070Z,73.05
2022-09-12T19:39:04.519Z,73.10
2022-09-12T19:41:34.853Z,73.20
2022-09-12T19:44:05.565Z,73.06
2022-09-12T19:46:35.798Z,73.11
2022-09-12T19:49:06.211Z,72.84
2022-09-12T19:51:36.389Z,72.74
2022-09-12T19:54:07.771Z,72.69
2022-09-12T19:56:38.258Z,72.73
2022-09-12T19:59:08.735Z,72.68
2022-09-12T20:01:39.014Z,72.68
2022-09-12T20:04:09.888Z,72.48
2022-09-12T20:06:40.047Z,72.35
2022-09-12T20:09:10.918Z,72.31
2022-09-12T20:11:41.230Z,72.34
2022-09-12T20:14:12.891Z,72.47
2022-09-12T20:16:45.545Z,72.38
2022-09-12T20:19:15.758Z,72.25
2022-09-12T20:21:46.073Z,72.20
2022-09-12T20:24:16.990Z,72.22
2022-09-12T20:26:47.790Z,72.34
2022-09-12T20:29:18.045Z,72.31
2022-09-12T20:31:49.326Z,72.24
2022-09-12T20:34:21.662Z,72.12
2022-09-12T20:36:51.853Z,72.26
2022-09-12T20:39:24.074Z,72.21
2022-09-12T20:41:54.339Z,72.45
2022-09-12T20:44:24.781Z,72.57
2022-09-12T20:46:55.358Z,72.70
2022-09-12T20:49:26.234Z,72.78
2022-09-12T20:51:56.485Z,72.94
2022-09-12T20:54:26.939Z,72.96
2022-09-12T20:56:57.116Z,73.05
2022-09-12T20:59:27.435Z,73.21
2022-09-12T21:01:58.194Z,73.35
2022-09-12T21:04:28.817Z,73.49
2022-09-12T21:06:59.893Z,73.84
2022-09-12T21:09:30.008Z,73.77
2022-09-12T21:12:00.601Z,73.66
2022-09-12T21:14:30.701Z,73.79
2022-09-12T21:17:00.825Z,73.99
2022-09-12T21:19:31.306Z,74.13
2022-09-12T21:22:01.692Z,74.13
2022-09-12T21:24:32.065Z,74.19
2022-09-12T21:27:04.337Z,74.33
2022-09-12T21:29:34.875Z,74.41
2022-09-12T21:32:06.006Z,74.56
2022-09-12T21:34:36.632Z,74.64
2022-09-12T21:37:06.816Z,74.64
2022-09-12T21:39:37.319Z,74.66
2022-09-12T21:42:08.032Z,74.76
2022-09-12T21:44:38.438Z,74.88
2022-09-12T21:47:09.314Z,74.94
2022-09-12T21:49:39.982Z,74.97
2022-09-12T21:52:12.595Z,74.97
2022-09-12T21:54:42.686Z,75.02
2022-09-12T21:57:12.794Z,75.14
2022-09-12T21:59:42.967Z,75.18
2022-09-12T22:02:13.852Z,75.15
2022-09-12T22:04:44.430Z,75.45
2022-09-12T22:07:14.578Z,75.42
2022-09-12T22:09:44.870Z,75.59
2022-09-12T22:12:15.073Z,75.46
2022-09-12T22:14:46.747Z,75.51
2022-09-12T22:17:17.387Z,75.51
2022-09-12T22:19:47.862Z,75.65
2022-09-12T22:22:46.946Z,75.75
2022-09-12T22:25:17.141Z,75.65
2022-09-12T22:27:47.267Z,75.73
2022-09-12T22:30:17.602Z,75.69
2022-09-12T22:32:49.747Z,75.76
2022-09-12T22:35:20.976Z,75.93
2022-09-12T22:37:51.207Z,76.02
2022-09-12T22:40:21.468Z,75.93
2022-09-12T22:42:54.046Z,75.92
2022-09-12T22:45:24.429Z,75.86
2022-09-12T22:47:55.702Z,76.09
2022-09-12T22:50:28.667Z,76.03
2022-09-12T22:52:59.099Z,76.11
2022-09-12T22:55:29.325Z,76.19
2022-09-12T22:57:59.538Z,76.10
2022-09-12T23:00:29.881Z,76.14
2022-09-12T23:03:00.161Z,76.22
2022-09-12T23:05:30.701Z,76.19
2022-09-12T23:08:00.824Z,76.20
2022-09-12T23:10:31.022Z,76.26
2022-09-12T23:13:01.190Z,76.36
2022-09-12T23:15:31.626Z,76.47
2022-09-12T23:18:03.926Z,76.55
2022-09-12T23:20:35.191Z,76.40
2022-09-12T23:23:05.607Z,76.52
2022-09-12T23:25:35.802Z,76.55
2022-09-12T23:28:05.970Z,76.49
2022-09-12T23:30:38.071Z,76.51
2022-09-12T23:33:08.216Z,76.55
2022-09-12T23:35:38.512Z,76.60
2022-09-12T23:38:12.591Z,76.50
2022-09-12T23:40:44.629Z,76.49
2022-09-12T23:43:15.070Z,76.70
2022-09-12T23:45:45.327Z,76.67
2022-09-12T23:48:16.038Z,76.89
2022-09-12T23:50:47.898Z,77.06
2022-09-12T23:53:20.012Z,76.94
2022-09-12T23:55:50.177Z,76.87
2022-09-12T23:58:21.631Z,76.92
